createdAt,value
2023-03-02T00:01:38.653Z,-1.00
2023-03-02T00:04:05.856Z,-0.90
2023-03-02T00:06:34.379Z,-1.00
2023-03-02T00:09:02.085Z,-0.90
2023-03-02T00:11:30.437Z,-1.00
2023-03-02T00:13:57.206Z,0.20
2023-03-02T00:16:23.864Z,-1.00
2023-03-02T00:18:50.516Z,-1.00
2023-03-02T00:21:17.338Z,-1.00
2023-03-02T00:23:44.860Z,-1.00
2023-03-02T00:26:11.533Z,-1.00
2023-03-02T00:28:38.229Z,-1.00
2023-03-02T00:31:05.249Z,-1.00
2023-03-02T00:33:32.607Z,-1.00
2023-03-02T00:35:59.368Z,-1.00
2023-03-02T00:38:27.657Z,-1.00
2023-03-02T00:40:55.530Z,-1.10
2023-03-02T00:43:27.240Z,-1.10
2023-03-02T00:45:54.658Z,-1.10
2023-03-02T00:48:21.321Z,-1.10
2023-03-02T00:50:48.011Z,-1.10
2023-03-02T00:53:14.649Z,-1.10
2023-03-02T00:55:41.340Z,-1.10
2023-03-02T00:58:08.028Z,-1.10
2023-03-02T01:00:35.648Z,-1.10
2023-03-02T01:03:02.265Z,-1.10
2023-03-02T01:05:28.910Z,-1.10
2023-03-02T01:07:55.480Z,-1.10
2023-03-02T01:10:22.111Z,-1.10
2023-03-02T01:12:48.711Z,-1.10
2023-03-02T01:15:15.383Z,-1.10
2023-03-02T01:17:43.857Z,-0.90
2023-03-02T01:20:11.397Z,-1.10
2023-03-02T01:22:38.022Z,-1.20
2023-03-02T01:25:04.850Z,-1.20
2023-03-02T01:27:31.588Z,-1.20
2023-03-02T01:29:58.256Z,-1.20
2023-03-02T01:32:24.921Z,1.10
2023-03-02T01:34:51.612Z,-1.30
2023-03-02T01:37:18.321Z,-1.30
2023-03-02T01:39:44.945Z,-1.40
2023-03-02T01:42:11.552Z,-1.40
2023-03-02T01:44:40.714Z,-1.40
2023-03-02T01:47:14.030Z,-0.30
2023-03-02T01:49:43.609Z,-1.50
2023-03-02T01:52:12.244Z,-1.50
2023-03-02T01:54:40.594Z,-1.50
2023-03-02T01:57:07.736Z,-1.50
2023-03-02T01:59:36.527Z,-1.50
2023-03-02T02:02:05.001Z,-1.50
2023-03-02T02:04:32.210Z,-1.50
2023-03-02T02:07:03.370Z,-1.50
2023-03-02T02:09:31.259Z,-1.50
2023-03-02T02:11:57.932Z,-1.50
2023-03-02T02:14:24.672Z,-1.60
2023-03-02T02:16:51.563Z,-1.50
2023-03-02T02:19:37.131Z,-1.60
2023-03-02T02:22:03.897Z,-1.60
2023-03-02T02:24:30.540Z,-1.60
2023-03-02T02:26:57.650Z,-1.50
2023-03-02T02:29:26.159Z,-1.50
2023-03-02T02:32:06.727Z,-1.50
2023-03-02T02:34:42.536Z,-1.50
2023-03-02T02:37:19.369Z,-3.10
2023-03-02T02:39:47.647Z,-1.50
2023-03-02T02:42:19.669Z,-1.50
2023-03-02T02:44:46.775Z,-1.50
2023-03-02T02:47:18.006Z,-1.50
2023-03-02T02:49:45.059Z,-1.40
2023-03-02T02:52:14.024Z,-1.40
2023-03-02T02:54:41.808Z,-1.40
2023-03-02T02:57:10.037Z,-1.40
2023-03-02T02:59:39.913Z,-1.50
2023-03-02T03:02:06.823Z,-1.40
2023-03-02T03:04:33.533Z,-1.00
2023-03-02T03:07:03.984Z,-1.50
2023-03-02T03:09:31.295Z,-1.50
2023-03-02T03:12:01.158Z,-1.50
2023-03-02T03:14:34.499Z,-1.60
2023-03-02T03:17:01.204Z,-1.60
2023-03-02T03:19:29.495Z,-1.60
2023-03-02T03:21:57.717Z,-1.60
2023-03-02T03:24:24.779Z,-1.60
2023-03-02T03:26:51.884Z,-1.70
2023-03-02T03:29:19.007Z,-1.70
2023-03-02T03:31:45.768Z,-1.70
2023-03-02T03:34:12.495Z,-1.70
2023-03-02T03:36:39.234Z,-1.70
2023-03-02T03:39:06.077Z,-1.70
2023-03-02T03:41:32.807Z,-1.80
2023-03-02T03:43:59.448Z,-1.80
2023-03-02T03:46:26.386Z,-1.80
2023-03-02T03:48:53.128Z,-1.90
2023-03-02T03:51:19.807Z,-1.80
2023-03-02T03:53:46.530Z,-1.80
2023-03-02T03:56:13.352Z,-1.90
2023-03-02T03:58:40.226Z,-1.90
2023-03-02T04:01:07.032Z,-1.80
2023-03-02T04:03:33.822Z,-0.90
2023-03-02T04:06:00.596Z,-1.90
2023-03-02T04:08:27.228Z,-1.80
2023-03-02T04:10:53.868Z,-1.80
2023-03-02T04:13:20.507Z,-1.80
2023-03-02T04:15:47.420Z,-1.80
2023-03-02T04:18:14.181Z,-1.80
2023-03-02T04:20:40.868Z,-1.80
2023-03-02T04:23:07.612Z,-1.80
2023-03-02T04:25:34.291Z,-0.40
2023-03-02T04:28:01.018Z,-1.70
2023-03-02T04:30:27.888Z,-1.70
2023-03-02T04:32:55.027Z,-1.70
2023-03-02T04:35:21.681Z,-1.60
2023-03-02T04:37:48.526Z,-1.00
2023-03-02T04:40:16.048Z,-1.50
2023-03-02T04:42:44.623Z,-1.50
2023-03-02T04:45:11.970Z,-1.50
2023-03-02T04:47:38.667Z,-1.50
2023-03-02T04:50:05.716Z,-1.50
2023-03-02T04:52:32.419Z,-1.50
2023-03-02T04:54:59.050Z,-1.50
2023-03-02T04:57:25.761Z,-1.50
2023-03-02T04:59:52.464Z,-1.40
2023-03-02T05:02:19.181Z,-1.40
2023-03-02T05:04:45.970Z,-1.40
2023-03-02T05:07:12.745Z,-1.40
2023-03-02T05:09:39.405Z,-1.40
2023-03-02T05:12:06.482Z,-1.40
2023-03-02T05:14:33.476Z,-1.30
2023-03-02T05:17:00.127Z,-1.30
2023-03-02T05:19:26.794Z,-1.30
2023-03-02T05:21:53.541Z,-1.30
2023-03-02T05:24:20.339Z,-1.20
2023-03-02T05:26:47.032Z,-1.20
2023-03-02T05:29:13.624Z,-1.20
2023-03-02T05:31:42.117Z,-1.20
2023-03-02T05:34:10.998Z,-1.20
2023-03-02T05:36:38.585Z,-1.20
2023-03-02T05:39:05.751Z,-1.20
2023-03-02T05:41:32.642Z,-1.20
2023-03-02T05:43:59.311Z,-1.10
2023-03-02T05:46:26.277Z,-1.10
2023-03-02T05:48:52.990Z,0.20
2023-03-02T05:51:19.718Z,-0.80
2023-03-02T05:53:46.661Z,-1.10
2023-03-02T05:56:13.382Z,-1.10
2023-03-02T05:58:40.002Z,-1.00
2023-03-02T06:01:12.690Z,-1.00
2023-03-02T06:03:41.987Z,-1.10
2023-03-02T06:06:08.618Z,-1.00
2023-03-02T06:08:40.882Z,-1.00
2023-03-02T06:11:07.859Z,-1.00
2023-03-02T06:13:34.796Z,-1.00
2023-03-02T06:16:01.515Z,-1.00
2023-03-02T06:18:28.180Z,-1.00
2023-03-02T06:20:58.253Z,-0.90
2023-03-02T06:23:24.977Z,-1.00
2023-03-02T06:25:51.691Z,0.40
2023-03-02T06:28:22.002Z,-0.90
2023-03-02T06:30:49.190Z,0.70
2023-03-02T06:33:16.747Z,-0.90
2023-03-02T06:35:43.649Z,-0.80
2023-03-02T06:38:10.339Z,-0.80
2023-03-02T06:40:36.985Z,-0.80
2023-03-02T06:43:04.377Z,-0.80
2023-03-02T06:45:33.726Z,-0.80
2023-03-02T06:48:00.971Z,-0.80
2023-03-02T06:50:28.334Z,-0.80
2023-03-02T06:52:55.191Z,-0.80
2023-03-02T06:55:21.936Z,-0.70
2023-03-02T06:57:48.716Z,-0.70
2023-03-02T07:00:25.855Z,0.80
2023-03-02T07:02:53.018Z,-0.60
2023-03-02T07:05:19.814Z,-0.60
2023-03-02T07:07:46.765Z,-0.60
2023-03-02T07:10:13.823Z,-0.60
2023-03-02T07:12:41.229Z,0.80
2023-03-02T07:15:11.231Z,-0.50
2023-03-02T07:17:38.802Z,-0.50
2023-03-02T07:20:06.340Z,-0.50
2023-03-02T07:22:33.287Z,-0.50
2023-03-02T07:24:59.979Z,-0.40
2023-03-02T07:27:26.651Z,-0.40
2023-03-02T07:29:53.199Z,-0.40
2023-03-02T07:32:19.848Z,-0.40
2023-03-02T07:34:46.522Z,-0.30
2023-03-02T07:37:13.224Z,-0.30
2023-03-02T07:39:39.905Z,-0.30
2023-03-02T07:42:08.960Z,-0.30
2023-03-02T07:44:35.694Z,-0.30
2023-03-02T07:47:02.473Z,1.40
2023-03-02T07:49:29.116Z,-0.30
2023-03-02T07:51:55.744Z,-0.30
2023-03-02T07:54:22.477Z,-0.20
2023-03-02T07:56:49.118Z,-0.20
2023-03-02T07:59:15.814Z,-0.10
2023-03-02T08:01:42.586Z,0.70
2023-03-02T08:04:09.581Z,0.00
2023-03-02T08:06:36.199Z,0.10
2023-03-02T08:09:03.334Z,0.20
2023-03-02T08:11:30.070Z,0.20
2023-03-02T08:13:59.180Z,0.30
2023-03-02T08:16:26.531Z,0.30
2023-03-02T08:18:53.293Z,0.40
2023-03-02T08:21:21.480Z,0.40
2023-03-02T08:23:48.247Z,0.50
2023-03-02T08:26:17.514Z,0.50
2023-03-02T08:28:44.557Z,0.60
2023-03-02T08:31:11.950Z,0.60
2023-03-02T08:33:38.602Z,0.60
2023-03-02T08:36:11.002Z,0.60
2023-03-02T08:38:37.764Z,0.60
2023-03-02T08:41:06.576Z,0.70
2023-03-02T08:43:33.580Z,0.70
2023-03-02T08:46:00.635Z,1.10
2023-03-02T08:48:27.989Z,0.80
2023-03-02T08:51:20.720Z,0.80
2023-03-02T08:53:50.426Z,0.70
2023-03-02T08:56:25.015Z,0.80
2023-03-02T08:58:52.737Z,-0.20
2023-03-02T09:01:23.650Z,0.80
2023-03-02T09:03:50.676Z,0.90
2023-03-02T09:06:17.645Z,0.90
2023-03-02T09:08:44.653Z,1.00
2023-03-02T09:11:11.477Z,1.00
2023-03-02T09:13:38.307Z,1.10
2023-03-02T09:16:05.493Z,1.10
2023-03-02T09:18:32.190Z,1.10
2023-03-02T09:20:58.805Z,1.30
2023-03-02T09:23:26.205Z,1.30
2023-03-02T09:25:52.961Z,1.40
2023-03-02T09:28:21.612Z,1.40
2023-03-02T09:30:49.685Z,1.50
2023-03-02T09:33:16.683Z,1.60
2023-03-02T09:35:43.420Z,1.70
2023-03-02T09:38:12.950Z,1.60
2023-03-02T09:40:42.959Z,2.20
2023-03-02T09:43:24.526Z,1.80
2023-03-02T09:46:00.354Z,1.90
2023-03-02T09:49:04.083Z,2.00
2023-03-02T09:51:31.120Z,2.00
2023-03-02T09:54:00.924Z,2.10
2023-03-02T09:56:27.586Z,2.10
2023-03-02T09:59:13.152Z,2.20
2023-03-02T10:01:43.398Z,2.20
2023-03-02T10:04:27.620Z,2.20
2023-03-02T10:06:56.489Z,2.30
2023-03-02T10:09:23.234Z,2.40
2023-03-02T10:12:12.926Z,2.50
2023-03-02T10:14:43.890Z,2.50
2023-03-02T10:17:10.443Z,2.60
2023-03-02T10:19:42.383Z,2.80
2023-03-02T10:22:22.529Z,2.80
2023-03-02T10:24:49.269Z,2.80
2023-03-02T10:27:20.612Z,2.90
2023-03-02T10:30:07.646Z,2.90
2023-03-02T10:32:40.620Z,3.00
2023-03-02T10:35:18.376Z,3.00
2023-03-02T10:37:45.084Z,3.10
2023-03-02T10:40:21.156Z,4.50
2023-03-02T10:42:48.844Z,3.10
2023-03-02T10:45:28.036Z,3.30
2023-03-02T10:48:08.153Z,3.40
2023-03-02T10:50:34.849Z,3.40
2023-03-02T10:53:04.812Z,3.50
2023-03-02T10:55:33.042Z,3.50
2023-03-02T10:58:01.474Z,4.30
2023-03-02T11:00:29.460Z,3.50
2023-03-02T11:03:00.904Z,3.50
2023-03-02T11:05:32.050Z,3.50
2023-03-02T11:08:16.653Z,3.60
2023-03-02T11:11:09.408Z,3.50
2023-03-02T11:13:37.162Z,3.60
2023-03-02T11:16:05.311Z,3.70
2023-03-02T11:18:35.100Z,3.60
2023-03-02T11:21:04.712Z,3.60
2023-03-02T11:23:31.665Z,3.70
2023-03-02T11:26:05.488Z,3.80
2023-03-02T11:28:41.673Z,3.80
2023-03-02T11:31:12.946Z,3.90
2023-03-02T11:33:44.177Z,3.90
2023-03-02T11:36:20.049Z,3.90
2023-03-02T11:38:54.679Z,3.80
2023-03-02T11:41:29.557Z,3.80
2023-03-02T11:43:58.311Z,3.90
2023-03-02T11:46:26.884Z,3.90
2023-03-02T11:48:55.959Z,4.50
2023-03-02T11:51:24.118Z,4.10
2023-03-02T11:54:28.943Z,4.10
2023-03-02T11:56:55.915Z,4.10
2023-03-02T11:59:22.850Z,4.30
2023-03-02T12:01:51.320Z,4.20
2023-03-02T12:04:32.545Z,4.30
2023-03-02T12:07:00.868Z,4.40
2023-03-02T12:09:35.496Z,5.10
2023-03-02T12:12:20.846Z,4.60
2023-03-02T12:14:47.547Z,4.70
2023-03-02T12:17:23.475Z,4.80
2023-03-02T12:19:51.982Z,4.80
2023-03-02T12:22:26.272Z,4.90
2023-03-02T12:24:59.709Z,4.90
2023-03-02T12:27:27.568Z,5.00
2023-03-02T12:30:09.689Z,4.90
2023-03-02T12:32:36.827Z,4.80
2023-03-02T12:35:09.672Z,4.60
2023-03-02T12:37:45.589Z,4.50
2023-03-02T12:40:27.011Z,4.60
2023-03-02T12:43:12.494Z,4.60
2023-03-02T12:45:45.316Z,4.70
2023-03-02T12:48:29.543Z,4.80
2023-03-02T12:51:00.734Z,4.70
2023-03-02T12:53:27.946Z,4.60
2023-03-02T12:55:54.632Z,4.70
2023-03-02T12:58:27.662Z,6.20
2023-03-02T13:00:58.800Z,4.90
2023-03-02T13:03:26.505Z,5.00
2023-03-02T13:06:03.951Z,5.10
2023-03-02T13:08:31.229Z,5.10
2023-03-02T13:11:00.131Z,5.20
2023-03-02T13:13:37.107Z,5.20
2023-03-02T13:16:05.391Z,5.20
2023-03-02T13:18:35.566Z,5.00
2023-03-02T13:21:03.160Z,4.90
2023-03-02T13:23:30.784Z,4.90
2023-03-02T13:25:58.754Z,4.90
2023-03-02T13:28:33.832Z,4.80
2023-03-02T13:31:20.952Z,4.60
2023-03-02T13:33:50.307Z,4.60
2023-03-02T13:36:43.414Z,4.60
2023-03-02T13:39:18.664Z,4.60
2023-03-02T13:41:52.337Z,4.60
2023-03-02T13:44:20.565Z,4.60
2023-03-02T13:46:47.601Z,4.70
2023-03-02T13:49:14.380Z,4.70
2023-03-02T13:51:42.554Z,4.70
2023-03-02T13:54:32.040Z,4.70
2023-03-02T13:57:00.732Z,4.70
2023-03-02T13:59:27.726Z,4.80
2023-03-02T14:01:54.364Z,4.80
2023-03-02T14:04:23.511Z,4.80
2023-03-02T14:06:50.895Z,4.80
2023-03-02T14:09:17.508Z,4.80
2023-03-02T14:11:45.525Z,5.10
2023-03-02T14:14:14.195Z,4.90
2023-03-02T14:16:41.535Z,4.90
2023-03-02T14:19:09.705Z,5.00
2023-03-02T14:21:36.755Z,4.90
2023-03-02T14:24:03.735Z,5.00
2023-03-02T14:27:02.828Z,5.10
2023-03-02T14:29:31.199Z,5.10
2023-03-02T14:32:00.311Z,5.20
2023-03-02T14:34:27.016Z,5.20
2023-03-02T14:36:54.508Z,5.30
2023-03-02T14:39:24.117Z,5.30
2023-03-02T14:41:54.141Z,5.30
2023-03-02T14:44:21.941Z,5.40
2023-03-02T14:46:48.782Z,5.40
2023-03-02T14:49:15.520Z,5.40
2023-03-02T14:51:43.991Z,5.40
2023-03-02T14:54:14.360Z,5.40
2023-03-02T14:56:42.046Z,5.30
2023-03-02T14:59:12.384Z,5.30
2023-03-02T15:01:39.523Z,5.30
2023-03-02T15:04:06.177Z,5.40
2023-03-02T15:06:43.039Z,5.40
2023-03-02T15:09:11.008Z,7.70
2023-03-02T15:11:37.654Z,5.40
2023-03-02T15:14:04.324Z,5.40
2023-03-02T15:16:31.058Z,5.50
2023-03-02T15:18:58.993Z,5.40
2023-03-02T15:21:25.744Z,6.30
2023-03-02T15:23:52.419Z,6.60
2023-03-02T15:26:19.175Z,5.40
2023-03-02T15:28:49.103Z,5.40
2023-03-02T15:31:16.544Z,5.40
2023-03-02T15:33:45.524Z,5.40
2023-03-02T15:36:12.957Z,5.30
2023-03-02T15:38:39.800Z,5.30
2023-03-02T15:41:07.272Z,5.30
2023-03-02T15:43:33.960Z,5.30
2023-03-02T15:46:02.242Z,5.30
2023-03-02T15:48:29.590Z,5.30
2023-03-02T15:51:00.243Z,5.30
2023-03-02T15:53:27.734Z,6.00
2023-03-02T15:55:54.475Z,5.30
2023-03-02T15:58:22.038Z,5.20
2023-03-02T16:00:49.202Z,5.20
2023-03-02T16:03:16.393Z,5.60
2023-03-02T16:05:43.123Z,5.10
2023-03-02T16:08:09.730Z,4.80
2023-03-02T16:10:36.732Z,5.00
2023-03-02T16:13:04.072Z,5.00
2023-03-02T16:15:31.731Z,5.00
2023-03-02T16:17:58.343Z,4.90
2023-03-02T16:20:24.954Z,4.90
2023-03-02T16:22:51.633Z,4.80
2023-03-02T16:25:18.369Z,4.80
2023-03-02T16:27:47.555Z,4.70
2023-03-02T16:30:15.211Z,4.70
2023-03-02T16:32:41.974Z,4.60
2023-03-02T16:35:09.407Z,4.60
2023-03-02T16:37:36.098Z,4.50
2023-03-02T16:40:02.788Z,4.50
2023-03-02T16:42:30.493Z,4.60
2023-03-02T16:44:57.165Z,4.40
2023-03-02T16:47:23.819Z,4.30
2023-03-02T16:49:50.503Z,4.20
2023-03-02T16:52:17.720Z,4.10
2023-03-02T16:54:45.059Z,4.00
2023-03-02T16:57:11.726Z,3.90
2023-03-02T16:59:38.583Z,3.80
2023-03-02T17:02:05.283Z,3.20
2023-03-02T17:04:34.840Z,3.60
2023-03-02T17:07:01.771Z,3.50
2023-03-02T17:09:28.572Z,3.40
2023-03-02T17:11:55.254Z,3.40
2023-03-02T17:14:22.104Z,3.20
2023-03-02T17:16:48.799Z,3.20
2023-03-02T17:19:15.495Z,3.10
2023-03-02T17:21:42.118Z,3.10
2023-03-02T17:24:08.725Z,2.90
2023-03-02T17:26:35.555Z,2.90
2023-03-02T17:29:02.395Z,2.80
2023-03-02T17:31:29.178Z,2.80
2023-03-02T17:33:56.393Z,2.70
2023-03-02T17:36:23.190Z,2.60
2023-03-02T17:38:50.022Z,2.60
2023-03-02T17:41:16.615Z,2.50
2023-03-02T17:43:43.263Z,2.50
2023-03-02T17:46:11.023Z,2.50
2023-03-02T17:48:37.799Z,2.90
2023-03-02T17:51:04.470Z,2.50
2023-03-02T17:53:31.048Z,2.30
2023-03-02T17:55:57.742Z,2.40
2023-03-02T17:58:26.715Z,2.30
2023-03-02T18:00:55.241Z,2.30
2023-03-02T18:03:21.955Z,2.20
2023-03-02T18:05:48.680Z,2.20
2023-03-02T18:08:15.361Z,2.10
2023-03-02T18:10:42.678Z,3.20
2023-03-02T18:13:09.332Z,2.00
2023-03-02T18:15:35.970Z,2.00
2023-03-02T18:18:02.736Z,2.00
2023-03-02T18:20:29.506Z,2.00
2023-03-02T18:22:57.204Z,1.90
2023-03-02T18:25:24.625Z,1.90
2023-03-02T18:27:51.938Z,1.90
2023-03-02T18:30:19.886Z,1.90
2023-03-02T18:32:46.527Z,1.90
2023-03-02T18:35:13.197Z,1.90
2023-03-02T18:37:39.921Z,1.90
2023-03-02T18:40:06.991Z,0.70
2023-03-02T18:42:33.717Z,1.90
2023-03-02T18:45:00.476Z,1.90
2023-03-02T18:47:27.510Z,1.80
2023-03-02T18:49:54.150Z,1.80
2023-03-02T18:52:20.791Z,1.00
2023-03-02T18:54:47.436Z,1.70
2023-03-02T18:57:14.071Z,1.50
2023-03-02T18:59:40.716Z,1.40
2023-03-02T19:02:09.808Z,1.30
2023-03-02T19:04:36.496Z,1.20
2023-03-02T19:07:03.176Z,1.20
2023-03-02T19:09:30.121Z,1.10
2023-03-02T19:11:56.765Z,1.10
2023-03-02T19:14:23.414Z,1.00
2023-03-02T19:16:50.191Z,1.00
2023-03-02T19:19:16.830Z,0.90
2023-03-02T19:21:43.416Z,0.90
2023-03-02T19:24:10.181Z,0.90
2023-03-02T19:26:37.387Z,0.90
2023-03-02T19:29:04.417Z,0.80
2023-03-02T19:31:32.795Z,0.80
2023-03-02T19:33:59.831Z,3.30
2023-03-02T19:36:26.489Z,0.70
2023-03-02T19:38:53.067Z,0.70
2023-03-02T19:41:20.046Z,0.70
2023-03-02T19:43:47.195Z,0.80
2023-03-02T19:46:15.010Z,0.70
2023-03-02T19:48:42.410Z,0.70
2023-03-02T19:51:09.605Z,0.70
2023-03-02T19:53:37.137Z,0.70
2023-03-02T19:56:07.200Z,0.60
2023-03-02T19:58:34.728Z,0.60
2023-03-02T20:01:01.871Z,0.60
2023-03-02T20:03:28.538Z,0.60
2023-03-02T20:05:56.046Z,0.60
2023-03-02T20:08:22.702Z,0.70
2023-03-02T20:10:49.640Z,0.40
2023-03-02T20:13:16.818Z,0.30
2023-03-02T20:15:44.632Z,0.30
2023-03-02T20:18:13.049Z,0.30
2023-03-02T20:20:39.773Z,0.20
2023-03-02T20:23:06.777Z,0.20
2023-03-02T20:25:34.089Z,0.20
2023-03-02T20:28:05.492Z,0.10
2023-03-02T20:30:37.351Z,0.10
2023-03-02T20:33:05.817Z,0.10
2023-03-02T20:35:34.020Z,0.00
2023-03-02T20:38:01.614Z,0.00
2023-03-02T20:40:29.520Z,-0.10
2023-03-02T20:42:56.257Z,-0.10
2023-03-02T20:45:23.017Z,-0.10
2023-03-02T20:47:49.717Z,-0.10
2023-03-02T20:50:17.798Z,-0.10
2023-03-02T20:52:44.523Z,-0.20
2023-03-02T20:55:11.286Z,-0.10
2023-03-02T20:57:38.550Z,-0.20
2023-03-02T21:00:07.318Z,-0.20
2023-03-02T21:02:33.977Z,-0.20
2023-03-02T21:05:00.715Z,-0.10
2023-03-02T21:07:27.392Z,-0.10
2023-03-02T21:09:54.238Z,-0.10
2023-03-02T21:12:20.927Z,1.30
2023-03-02T21:14:47.648Z,-0.10
2023-03-02T21:17:14.238Z,-0.10
2023-03-02T21:19:40.877Z,-0.10
2023-03-02T21:22:07.654Z,-0.20
2023-03-02T21:24:34.245Z,-0.20
2023-03-02T21:27:01.415Z,-0.20
2023-03-02T21:29:28.259Z,-0.20
2023-03-02T21:31:55.093Z,-0.20
2023-03-02T21:34:22.367Z,-0.20
2023-03-02T21:36:53.071Z,-0.20
2023-03-02T21:39:20.479Z,-0.30
2023-03-02T21:41:47.163Z,-0.30
2023-03-02T21:44:13.809Z,-0.30
2023-03-02T21:46:40.692Z,-0.20
2023-03-02T21:49:07.325Z,-0.20
2023-03-02T21:51:34.257Z,-0.20
2023-03-02T21:54:01.811Z,-0.10
2023-03-02T21:56:28.667Z,-0.10
2023-03-02T21:58:56.157Z,-0.10
2023-03-02T22:01:23.528Z,0.00
2023-03-02T22:03:50.366Z,0.10
2023-03-02T22:06:21.656Z,0.10
2023-03-02T22:08:48.599Z,0.00
2023-03-02T22:11:20.456Z,0.20
2023-03-02T22:13:48.098Z,0.10
2023-03-02T22:16:16.692Z,0.10
2023-03-02T22:18:44.758Z,0.10
2023-03-02T22:21:22.929Z,0.10
2023-03-02T22:23:49.688Z,0.10
2023-03-02T22:26:16.886Z,0.20
2023-03-02T22:28:43.588Z,0.20
2023-03-02T22:31:20.283Z,0.20
2023-03-02T22:33:47.614Z,0.20
2023-03-02T22:36:18.351Z,0.20
2023-03-02T22:38:44.975Z,1.60
2023-03-02T22:41:16.465Z,0.20
2023-03-02T22:43:43.378Z,0.10
2023-03-02T22:46:10.289Z,0.10
2023-03-02T22:48:37.691Z,3.00
2023-03-02T22:51:15.272Z,0.10
2023-03-02T22:53:45.510Z,0.10
2023-03-02T22:56:26.010Z,0.10
2023-03-02T22:58:52.726Z,0.20
2023-03-02T23:01:20.039Z,0.20
2023-03-02T23:03:47.988Z,0.20
2023-03-02T23:06:22.126Z,0.20
2023-03-02T23:08:49.398Z,0.20
2023-03-02T23:11:18.265Z,0.30
2023-03-02T23:13:45.138Z,0.30
2023-03-02T23:16:20.909Z,0.30
2023-03-02T23:18:48.446Z,0.30
2023-03-02T23:21:28.547Z,0.40
2023-03-02T23:23:55.628Z,0.40
2023-03-02T23:26:22.429Z,0.40
2023-03-02T23:28:50.234Z,0.40
2023-03-02T23:31:18.451Z,0.40
2023-03-02T23:33:45.488Z,0.40
2023-03-02T23:36:12.116Z,0.40
2023-03-02T23:38:39.439Z,0.40
2023-03-02T23:41:07.365Z,0.30
2023-03-02T23:43:34.663Z,0.30
2023-03-02T23:46:01.836Z,0.40
2023-03-02T23:48:28.612Z,0.40
2023-03-02T23:50:55.233Z,0.40
2023-03-02T23:53:21.823Z,0.40
2023-03-02T23:55:49.326Z,0.40
2023-03-02T23:58:16.521Z,0.40
